sensor_id;sensor_type;location;lat;lon;timestamp;pressure;altitude;pressure_sealevel;temperature;humidity
72055;BME280;59936;51.490;5.436;2023-05-02T00:00:00;101844.34;;;10.74;79.70
72055;BME280;59936;51.490;5.436;2023-05-02T00:02:25;101843.97;;;10.69;75.74
72055;BME280;59936;51.490;5.436;2023-05-02T00:04:51;101851.69;;;10.72;79.88
72055;BME280;59936;51.490;5.436;2023-05-02T00:07:17;101851.84;;;10.70;76.69
72055;BME280;59936;51.490;5.436;2023-05-02T00:09:43;101857.19;;;10.80;79.97
72055;BME280;59936;51.490;5.436;2023-05-02T00:12:08;101855.50;;;10.79;76.57
72055;BME280;59936;51.490;5.436;2023-05-02T00:14:34;101862.84;;;10.86;80.00
72055;BME280;59936;51.490;5.436;2023-05-02T00:17:00;101863.69;;;10.87;77.09
72055;BME280;59936;51.490;5.436;2023-05-02T00:19:26;101868.47;;;10.93;80.11
72055;BME280;59936;51.490;5.436;2023-05-02T00:21:51;101866.94;;;10.90;77.78
72055;BME280;59936;51.490;5.436;2023-05-02T00:24:17;101872.84;;;10.94;80.20
72055;BME280;59936;51.490;5.436;2023-05-02T00:26:43;101875.50;;;10.94;79.20
72055;BME280;59936;51.490;5.436;2023-05-02T00:29:09;101875.38;;;10.95;80.16
72055;BME280;59936;51.490;5.436;2023-05-02T00:31:34;101882.84;;;10.92;77.42
72055;BME280;59936;51.490;5.436;2023-05-02T00:34:00;101877.91;;;10.97;80.43
72055;BME280;59936;51.490;5.436;2023-05-02T00:36:26;101887.94;;;10.95;77.60
72055;BME280;59936;51.490;5.436;2023-05-02T00:38:52;101885.13;;;10.97;80.57
72055;BME280;59936;51.490;5.436;2023-05-02T00:41:18;101884.69;;;10.91;76.88
72055;BME280;59936;51.490;5.436;2023-05-02T00:43:43;101887.94;;;10.95;80.12
72055;BME280;59936;51.490;5.436;2023-05-02T00:46:09;101883.03;;;10.90;77.37
72055;BME280;59936;51.490;5.436;2023-05-02T00:48:35;101889.06;;;10.92;80.69
72055;BME280;59936;51.490;5.436;2023-05-02T00:51:01;101888.69;;;10.87;77.25
72055;BME280;59936;51.490;5.436;2023-05-02T00:53:27;101889.38;;;10.89;80.53
72055;BME280;59936;51.490;5.436;2023-05-02T00:55:53;101889.22;;;10.81;77.07
72055;BME280;59936;51.490;5.436;2023-05-02T00:58:19;101896.28;;;10.82;81.33
72055;BME280;59936;51.490;5.436;2023-05-02T01:03:34;101903.19;;;10.75;80.83
72055;BME280;59936;51.490;5.436;2023-05-02T01:06:12;101893.75;;;10.71;79.64
72055;BME280;59936;51.490;5.436;2023-05-02T01:08:48;101901.25;;;10.68;77.96
72055;BME280;59936;51.490;5.436;2023-05-02T01:11:22;101901.25;;;10.68;77.96
72055;BME280;59936;51.490;5.436;2023-05-02T01:13:52;101892.78;;;10.63;77.52
72055;BME280;59936;51.490;5.436;2023-05-02T01:16:20;101893.91;;;10.60;77.59
72055;BME280;59936;51.490;5.436;2023-05-02T01:18:49;101890.38;;;10.59;77.55
72055;BME280;59936;51.490;5.436;2023-05-02T01:21:15;101895.75;;;10.59;76.95
72055;BME280;59936;51.490;5.436;2023-05-02T01:26:15;101894.03;;;10.58;80.76
72055;BME280;59936;51.490;5.436;2023-05-02T01:31:17;101901.78;;;10.42;77.91
72055;BME280;59936;51.490;5.436;2023-05-02T01:33:43;101901.78;;;10.42;77.91
72055;BME280;59936;51.490;5.436;2023-05-02T01:36:12;101902.28;;;10.26;78.30
72055;BME280;59936;51.490;5.436;2023-05-02T01:38:41;101902.28;;;10.26;78.30
72055;BME280;59936;51.490;5.436;2023-05-02T01:41:09;101894.38;;;10.15;nan
72055;BME280;59936;51.490;5.436;2023-05-02T01:43:36;101889.84;;;10.06;77.88
72055;BME280;59936;51.490;5.436;2023-05-02T01:46:04;101909.16;;;10.00;77.64
72055;BME280;59936;51.490;5.436;2023-05-02T01:48:31;101913.50;;;9.91;77.54
72055;BME280;59936;51.490;5.436;2023-05-02T01:50:57;101914.34;;;9.82;78.44
72055;BME280;59936;51.490;5.436;2023-05-02T01:53:25;101917.66;;;9.75;81.75
72055;BME280;59936;51.490;5.436;2023-05-02T01:55:53;101912.84;;;9.69;78.71
72055;BME280;59936;51.490;5.436;2023-05-02T01:58:20;101919.91;;;9.70;78.40
72055;BME280;59936;51.490;5.436;2023-05-02T02:00:47;101921.47;;;9.72;77.84
72055;BME280;59936;51.490;5.436;2023-05-02T02:03:14;101929.09;;;9.77;78.20
72055;BME280;59936;51.490;5.436;2023-05-02T02:05:41;101929.09;;;9.77;78.20
72055;BME280;59936;51.490;5.436;2023-05-02T02:08:08;101925.56;;;9.76;77.97
72055;BME280;59936;51.490;5.436;2023-05-02T02:10:39;101929.53;;;9.82;77.10
72055;BME280;59936;51.490;5.436;2023-05-02T02:13:06;101932.91;;;9.84;80.75
72055;BME280;59936;51.490;5.436;2023-05-02T02:15:37;101937.16;;;9.86;82.34
72055;BME280;59936;51.490;5.436;2023-05-02T02:18:09;101948.84;;;9.85;81.58
72055;BME280;59936;51.490;5.436;2023-05-02T02:20:36;101947.84;;;9.86;78.10
72055;BME280;59936;51.490;5.436;2023-05-02T02:23:05;101940.41;;;9.90;77.94
72055;BME280;59936;51.490;5.436;2023-05-02T02:25:33;101949.16;;;9.92;79.43
72055;BME280;59936;51.490;5.436;2023-05-02T02:27:59;101949.41;;;9.89;79.09
72055;BME280;59936;51.490;5.436;2023-05-02T02:30:25;101944.06;;;9.89;77.80
72055;BME280;59936;51.490;5.436;2023-05-02T02:32:51;101950.97;;;9.91;77.49
72055;BME280;59936;51.490;5.436;2023-05-02T02:35:17;101952.69;;;9.92;81.20
72055;BME280;59936;51.490;5.436;2023-05-02T02:37:45;101947.59;;;9.89;78.74
72055;BME280;59936;51.490;5.436;2023-05-02T02:40:20;101954.38;;;9.93;82.58
72055;BME280;59936;51.490;5.436;2023-05-02T02:45:49;101959.47;;;9.97;83.14
72055;BME280;59936;51.490;5.436;2023-05-02T02:48:33;101960.13;;;9.89;82.14
72055;BME280;59936;51.490;5.436;2023-05-02T02:53:33;101961.69;;;9.91;79.41
72055;BME280;59936;51.490;5.436;2023-05-02T02:56:06;101968.34;;;9.97;83.29
72055;BME280;59936;51.490;5.436;2023-05-02T02:58:56;101962.41;;;9.93;79.18
72055;BME280;59936;51.490;5.436;2023-05-02T03:01:26;101963.13;;;9.96;80.01
72055;BME280;59936;51.490;5.436;2023-05-02T03:03:56;101968.34;;;9.97;80.94
72055;BME280;59936;51.490;5.436;2023-05-02T03:06:22;101972.00;;;9.96;78.99
72055;BME280;59936;51.490;5.436;2023-05-02T03:08:48;101977.94;;;10.00;79.01
72055;BME280;59936;51.490;5.436;2023-05-02T03:11:14;101983.16;;;10.01;78.34
72055;BME280;59936;51.490;5.436;2023-05-02T03:13:40;101976.53;;;10.05;82.25
72055;BME280;59936;51.490;5.436;2023-05-02T03:16:21;101994.59;;;10.03;79.00
72055;BME280;59936;51.490;5.436;2023-05-02T03:18:52;101995.16;;;10.07;79.60
72055;BME280;59936;51.490;5.436;2023-05-02T03:21:18;101995.16;;;10.07;79.60
72055;BME280;59936;51.490;5.436;2023-05-02T03:23:43;102003.91;;;10.09;82.76
72055;BME280;59936;51.490;5.436;2023-05-02T03:26:09;102002.47;;;10.05;80.15
72055;BME280;59936;51.490;5.436;2023-05-02T03:28:35;102007.81;;;10.05;80.62
72055;BME280;59936;51.490;5.436;2023-05-02T03:31:01;102007.81;;;10.05;80.62
72055;BME280;59936;51.490;5.436;2023-05-02T03:33:26;102000.63;;;10.05;82.44
72055;BME280;59936;51.490;5.436;2023-05-02T03:35:52;102007.00;;;10.04;79.70
72055;BME280;59936;51.490;5.436;2023-05-02T03:38:18;102003.03;;;10.08;82.57
72055;BME280;59936;51.490;5.436;2023-05-02T03:40:44;102005.16;;;10.05;78.85
72055;BME280;59936;51.490;5.436;2023-05-02T03:43:10;102004.75;;;10.09;83.49
72055;BME280;59936;51.490;5.436;2023-05-02T03:45:35;102002.63;;;10.03;80.46
72055;BME280;59936;51.490;5.436;2023-05-02T03:48:01;102002.19;;;10.08;83.38
72055;BME280;59936;51.490;5.436;2023-05-02T03:50:27;102007.81;;;10.05;79.41
72055;BME280;59936;51.490;5.436;2023-05-02T03:52:53;101999.97;;;10.13;83.78
72055;BME280;59936;51.490;5.436;2023-05-02T03:55:19;102012.19;;;10.06;80.95
72055;BME280;59936;51.490;5.436;2023-05-02T03:57:44;102005.47;;;10.11;83.84
72055;BME280;59936;51.490;5.436;2023-05-02T04:00:10;102014.59;;;10.09;80.17
72055;BME280;59936;51.490;5.436;2023-05-02T04:02:36;102019.44;;;10.15;83.40
72055;BME280;59936;51.490;5.436;2023-05-02T04:05:02;102019.69;;;10.12;80.35
72055;BME280;59936;51.490;5.436;2023-05-02T04:07:27;102033.69;;;10.15;80.09
72055;BME280;59936;51.490;5.436;2023-05-02T04:09:53;102036.94;;;10.19;83.78
72055;BME280;59936;51.490;5.436;2023-05-02T04:12:19;102034.66;;;10.14;82.59
72055;BME280;59936;51.490;5.436;2023-05-02T04:14:45;102040.28;;;10.11;83.19
72055;BME280;59936;51.490;5.436;2023-05-02T04:17:10;102036.31;;;10.06;80.43
72055;BME280;59936;51.490;5.436;2023-05-02T04:19:36;102044.19;;;10.07;82.59
72055;BME280;59936;51.490;5.436;2023-05-02T04:22:02;102045.47;;;10.03;80.35
72055;BME280;59936;51.490;5.436;2023-05-02T04:24:28;102048.16;;;10.03;82.45
72055;BME280;59936;51.490;5.436;2023-05-02T04:26:53;102055.47;;;10.01;79.90
72055;BME280;59936;51.490;5.436;2023-05-02T04:29:19;102060.56;;;10.04;82.14
72055;BME280;59936;51.490;5.436;2023-05-02T04:31:45;102073.25;;;10.02;78.27
72055;BME280;59936;51.490;5.436;2023-05-02T04:34:11;102065.47;;;9.99;80.52
72055;BME280;59936;51.490;5.436;2023-05-02T04:36:36;102067.94;;;9.91;78.48
72055;BME280;59936;51.490;5.436;2023-05-02T04:39:02;102090.44;;;9.79;78.01
72055;BME280;59936;51.490;5.436;2023-05-02T04:41:28;102090.44;;;9.79;78.01
72055;BME280;59936;51.490;5.436;2023-05-02T04:43:54;102088.78;;;9.67;77.19
72055;BME280;59936;51.490;5.436;2023-05-02T04:46:19;102090.88;;;9.63;75.70
72055;BME280;59936;51.490;5.436;2023-05-02T04:48:45;102086.91;;;9.57;76.25
72055;BME280;59936;51.490;5.436;2023-05-02T04:51:11;102103.94;;;9.56;75.06
72055;BME280;59936;51.490;5.436;2023-05-02T04:53:37;102108.69;;;9.53;74.71
72055;BME280;59936;51.490;5.436;2023-05-02T04:56:02;102111.97;;;9.56;74.52
72055;BME280;59936;51.490;5.436;2023-05-02T04:58:28;102119.16;;;9.56;74.11
72055;BME280;59936;51.490;5.436;2023-05-02T05:00:54;102121.44;;;9.61;73.87
72055;BME280;59936;51.490;5.436;2023-05-02T05:03:20;102122.22;;;9.51;73.93
72055;BME280;59936;51.490;5.436;2023-05-02T05:05:46;102133.75;;;9.52;73.12
72055;BME280;59936;51.490;5.436;2023-05-02T05:08:12;102133.75;;;9.52;73.12
72055;BME280;59936;51.490;5.436;2023-05-02T05:10:37;102136.56;;;9.50;73.42
72055;BME280;59936;51.490;5.436;2023-05-02T05:13:03;102138.00;;;9.54;72.96
72055;BME280;59936;51.490;5.436;2023-05-02T05:15:29;102142.75;;;9.51;73.28
72055;BME280;59936;51.490;5.436;2023-05-02T05:17:55;102147.00;;;9.53;72.86
72055;BME280;59936;51.490;5.436;2023-05-02T05:20:20;102149.69;;;9.53;73.31
72055;BME280;59936;51.490;5.436;2023-05-02T05:22:46;102158.44;;;9.55;72.63
72055;BME280;59936;51.490;5.436;2023-05-02T05:25:12;102159.78;;;9.50;73.44
72055;BME280;59936;51.490;5.436;2023-05-02T05:27:38;102157.25;;;9.48;72.71
72055;BME280;59936;51.490;5.436;2023-05-02T05:30:04;102161.03;;;9.46;73.39
72055;BME280;59936;51.490;5.436;2023-05-02T05:32:32;102162.72;;;9.47;72.51
72055;BME280;59936;51.490;5.436;2023-05-02T05:34:57;102167.09;;;9.48;72.24
72055;BME280;59936;51.490;5.436;2023-05-02T05:37:23;102162.72;;;9.47;72.18
72055;BME280;59936;51.490;5.436;2023-05-02T05:39:49;102176.69;;;9.50;72.10
72055;BME280;59936;51.490;5.436;2023-05-02T05:42:15;102171.94;;;9.54;73.02
72055;BME280;59936;51.490;5.436;2023-05-02T05:44:41;102171.16;;;9.63;71.81
72055;BME280;59936;51.490;5.436;2023-05-02T05:47:06;102170.31;;;9.63;72.13
72055;BME280;59936;51.490;5.436;2023-05-02T05:49:32;102177.13;;;9.67;71.17
72055;BME280;59936;51.490;5.436;2023-05-02T05:51:59;102178.34;;;9.63;71.32
72055;BME280;59936;51.490;5.436;2023-05-02T05:54:25;102178.63;;;9.60;70.98
72055;BME280;59936;51.490;5.436;2023-05-02T05:56:51;102184.50;;;9.74;70.38
72055;BME280;59936;51.490;5.436;2023-05-02T05:59:17;102185.25;;;9.97;69.82
72055;BME280;59936;51.490;5.436;2023-05-02T06:01:42;102184.31;;;10.08;69.05
72055;BME280;59936;51.490;5.436;2023-05-02T06:04:08;102181.72;;;10.17;68.80
72055;BME280;59936;51.490;5.436;2023-05-02T06:06:34;102189.50;;;10.20;67.01
72055;BME280;59936;51.490;5.436;2023-05-02T06:09:00;102196.22;;;10.15;68.13
72055;BME280;59936;51.490;5.436;2023-05-02T06:11:26;102203.81;;;10.10;67.24
72055;BME280;59936;51.490;5.436;2023-05-02T06:13:51;102209.25;;;10.19;68.06
72055;BME280;59936;51.490;5.436;2023-05-02T06:16:18;102206.91;;;10.77;67.02
72055;BME280;59936;51.490;5.436;2023-05-02T06:18:44;102206.91;;;10.77;67.02
72055;BME280;59936;51.490;5.436;2023-05-02T06:21:10;102208.84;;;11.06;66.23
72055;BME280;59936;51.490;5.436;2023-05-02T06:23:36;102215.34;;;11.13;65.43
72055;BME280;59936;51.490;5.436;2023-05-02T06:26:02;102219.91;;;11.22;63.36
72055;BME280;59936;51.490;5.436;2023-05-02T06:28:29;102219.03;;;11.12;65.52
72055;BME280;59936;51.490;5.436;2023-05-02T06:31:00;102226.78;;;11.05;66.28
72055;BME280;59936;51.490;5.436;2023-05-02T06:33:27;102234.41;;;11.10;66.38
72055;BME280;59936;51.490;5.436;2023-05-02T06:35:53;102227.09;;;11.21;66.76
72055;BME280;59936;51.490;5.436;2023-05-02T06:38:18;102229.50;;;11.24;66.13
72055;BME280;59936;51.490;5.436;2023-05-02T06:40:44;102239.34;;;11.14;63.81
72055;BME280;59936;51.490;5.436;2023-05-02T06:43:10;102243.66;;;11.26;65.85
72055;BME280;59936;51.490;5.436;2023-05-02T06:45:36;102243.78;;;11.25;63.70
72055;BME280;59936;51.490;5.436;2023-05-02T06:48:02;102257.50;;;11.41;65.33
72055;BME280;59936;51.490;5.436;2023-05-02T06:50:28;102262.38;;;11.67;65.98
72055;BME280;59936;51.490;5.436;2023-05-02T06:52:54;102263.53;;;11.93;63.46
72055;BME280;59936;51.490;5.436;2023-05-02T06:55:20;102257.88;;;12.35;65.90
72055;BME280;59936;51.490;5.436;2023-05-02T06:57:47;102257.13;;;12.61;61.00
72055;BME280;59936;51.490;5.436;2023-05-02T07:00:15;102268.06;;;12.31;65.41
72055;BME280;59936;51.490;5.436;2023-05-02T07:02:40;102275.56;;;12.27;66.31
72055;BME280;59936;51.490;5.436;2023-05-02T07:05:06;102275.13;;;12.03;67.03
72055;BME280;59936;51.490;5.436;2023-05-02T07:07:32;102279.22;;;11.88;65.08
72055;BME280;59936;51.490;5.436;2023-05-02T07:09:58;102281.03;;;11.78;67.05
72055;BME280;59936;51.490;5.436;2023-05-02T07:12:24;102296.28;;;11.68;66.61
72055;BME280;59936;51.490;5.436;2023-05-02T07:14:50;102306.13;;;12.07;66.79
72055;BME280;59936;51.490;5.436;2023-05-02T07:17:16;102306.13;;;12.07;66.79
72055;BME280;59936;51.490;5.436;2023-05-02T07:19:42;102299.50;;;12.11;63.23
72055;BME280;59936;51.490;5.436;2023-05-02T07:22:07;102301.16;;;12.22;65.86
72055;BME280;59936;51.490;5.436;2023-05-02T07:24:33;102294.22;;;12.48;63.25
72055;BME280;59936;51.490;5.436;2023-05-02T07:26:59;102296.78;;;13.33;63.94
72055;BME280;59936;51.490;5.436;2023-05-02T07:29:25;102308.09;;;13.37;63.59
72055;BME280;59936;51.490;5.436;2023-05-02T07:31:51;102308.56;;;12.95;62.96
72055;BME280;59936;51.490;5.436;2023-05-02T07:34:17;102311.34;;;12.57;63.03
72055;BME280;59936;51.490;5.436;2023-05-02T07:36:42;102323.66;;;12.30;64.48
72055;BME280;59936;51.490;5.436;2023-05-02T07:39:08;102324.25;;;12.15;64.31
72055;BME280;59936;51.490;5.436;2023-05-02T07:41:34;102322.69;;;12.41;64.96
72055;BME280;59936;51.490;5.436;2023-05-02T07:44:00;102324.53;;;12.12;63.94
72055;BME280;59936;51.490;5.436;2023-05-02T07:46:26;102329.66;;;11.65;64.95
72055;BME280;59936;51.490;5.436;2023-05-02T07:48:52;102328.56;;;11.87;65.61
72055;BME280;59936;51.490;5.436;2023-05-02T07:51:17;102331.00;;;12.48;64.08
72055;BME280;59936;51.490;5.436;2023-05-02T07:53:43;102317.06;;;13.00;63.40
72055;BME280;59936;51.490;5.436;2023-05-02T07:56:09;102317.06;;;13.00;63.11
72055;BME280;59936;51.490;5.436;2023-05-02T07:58:35;102335.84;;;12.63;63.42
72055;BME280;59936;51.490;5.436;2023-05-02T08:01:01;102341.91;;;12.27;64.55
72055;BME280;59936;51.490;5.436;2023-05-02T08:03:27;102332.63;;;11.81;64.39
72055;BME280;59936;51.490;5.436;2023-05-02T08:05:52;102337.97;;;11.52;65.73
72055;BME280;59936;51.490;5.436;2023-05-02T08:08:18;102339.47;;;11.45;65.21
72055;BME280;59936;51.490;5.436;2023-05-02T08:10:44;102341.63;;;11.21;65.61
72055;BME280;59936;51.490;5.436;2023-05-02T08:13:10;102353.19;;;11.12;66.08
72055;BME280;59936;51.490;5.436;2023-05-02T08:15:36;102357.31;;;10.74;65.06
72055;BME280;59936;51.490;5.436;2023-05-02T08:18:01;102355.44;;;10.65;65.66
72055;BME280;59936;51.490;5.436;2023-05-02T08:20:27;102364.00;;;10.48;64.88
72055;BME280;59936;51.490;5.436;2023-05-02T08:22:53;102372.16;;;10.57;65.40
72055;BME280;59936;51.490;5.436;2023-05-02T08:25:19;102369.41;;;10.37;61.25
72055;BME280;59936;51.490;5.436;2023-05-02T08:27:45;102375.09;;;10.54;64.91
72055;BME280;59936;51.490;5.436;2023-05-02T08:30:11;102374.59;;;10.60;62.98
72055;BME280;59936;51.490;5.436;2023-05-02T08:32:37;102377.91;;;10.74;63.91
72055;BME280;59936;51.490;5.436;2023-05-02T08:35:03;102382.69;;;10.91;63.74
72055;BME280;59936;51.490;5.436;2023-05-02T08:37:29;102389.50;;;10.95;60.76
72055;BME280;59936;51.490;5.436;2023-05-02T08:39:54;102385.16;;;11.24;62.46
72055;BME280;59936;51.490;5.436;2023-05-02T08:42:20;102393.22;;;11.24;59.60
72055;BME280;59936;51.490;5.436;2023-05-02T08:44:50;102387.41;;;11.59;62.54
72055;BME280;59936;51.490;5.436;2023-05-02T08:47:17;102385.28;;;11.53;58.22
72055;BME280;59936;51.490;5.436;2023-05-02T08:49:43;102394.97;;;11.75;60.76
72055;BME280;59936;51.490;5.436;2023-05-02T08:52:11;102390.06;;;11.90;60.88
72055;BME280;59936;51.490;5.436;2023-05-02T08:54:37;102397.66;;;12.15;59.64
72055;BME280;59936;51.490;5.436;2023-05-02T08:57:04;102405.84;;;12.91;58.79
72055;BME280;59936;51.490;5.436;2023-05-02T08:59:30;102405.84;;;12.91;58.79
72055;BME280;59936;51.490;5.436;2023-05-02T09:02:04;102403.19;;;12.81;58.90
72055;BME280;59936;51.490;5.436;2023-05-02T09:04:31;102407.44;;;12.45;54.83
72055;BME280;59936;51.490;5.436;2023-05-02T09:06:58;102416.75;;;12.89;57.82
72055;BME280;59936;51.490;5.436;2023-05-02T09:09:24;102416.75;;;12.89;57.82
72055;BME280;59936;51.490;5.436;2023-05-02T09:11:51;102413.81;;;12.63;54.51
72055;BME280;59936;51.490;5.436;2023-05-02T09:14:17;102413.81;;;12.63;54.51
72055;BME280;59936;51.490;5.436;2023-05-02T09:16:43;102423.56;;;12.64;58.20
72055;BME280;59936;51.490;5.436;2023-05-02T09:19:09;102425.41;;;12.45;54.05
72055;BME280;59936;51.490;5.436;2023-05-02T09:21:37;102424.50;;;13.12;58.66
72055;BME280;59936;51.490;5.436;2023-05-02T09:24:18;102422.22;;;13.73;57.37
72055;BME280;59936;51.490;5.436;2023-05-02T09:27:02;102422.22;;;13.73;57.37
72055;BME280;59936;51.490;5.436;2023-05-02T09:29:29;102422.88;;;13.85;52.45
72055;BME280;59936;51.490;5.436;2023-05-02T09:31:56;102426.59;;;15.00;54.74
72055;BME280;59936;51.490;5.436;2023-05-02T09:34:22;102426.59;;;15.00;54.74
72055;BME280;59936;51.490;5.436;2023-05-02T09:36:49;102414.56;;;16.22;52.44
72055;BME280;59936;51.490;5.436;2023-05-02T09:39:17;102420.56;;;15.92;53.74
72055;BME280;59936;51.490;5.436;2023-05-02T09:41:44;102422.50;;;15.48;55.12
72055;BME280;59936;51.490;5.436;2023-05-02T09:44:13;102441.84;;;13.93;56.48
72055;BME280;59936;51.490;5.436;2023-05-02T09:46:49;102441.84;;;13.93;56.48
72055;BME280;59936;51.490;5.436;2023-05-02T09:49:15;102449.00;;;13.47;58.51
72055;BME280;59936;51.490;5.436;2023-05-02T09:51:41;102451.19;;;13.61;56.96
72055;BME280;59936;51.490;5.436;2023-05-02T09:54:06;102462.19;;;13.12;56.81
72055;BME280;59936;51.490;5.436;2023-05-02T09:56:53;102462.19;;;13.12;56.81
72055;BME280;59936;51.490;5.436;2023-05-02T09:59:19;102456.84;;;12.73;54.93
72055;BME280;59936;51.490;5.436;2023-05-02T10:01:54;102459.56;;;13.58;56.40
72055;BME280;59936;51.490;5.436;2023-05-02T10:04:20;102459.56;;;13.58;56.40
72055;BME280;59936;51.490;5.436;2023-05-02T10:06:47;102457.09;;;13.28;57.36
72055;BME280;59936;51.490;5.436;2023-05-02T10:09:15;102454.22;;;13.49;57.28
72055;BME280;59936;51.490;5.436;2023-05-02T10:11:43;102444.75;;;14.72;54.99
72055;BME280;59936;51.490;5.436;2023-05-02T10:14:10;102438.47;;;17.40;52.21
72055;BME280;59936;51.490;5.436;2023-05-02T10:19:25;102437.47;;;17.89;50.79
72055;BME280;59936;51.490;5.436;2023-05-02T10:21:56;102444.56;;;16.61;53.14
72055;BME280;59936;51.490;5.436;2023-05-02T10:24:23;102445.56;;;15.08;53.58
72055;BME280;59936;51.490;5.436;2023-05-02T10:26:49;102457.41;;;13.99;55.04
72055;BME280;59936;51.490;5.436;2023-05-02T10:29:15;102444.28;;;13.86;55.41
72055;BME280;59936;51.490;5.436;2023-05-02T10:31:42;102441.22;;;15.67;54.19
72055;BME280;59936;51.490;5.436;2023-05-02T10:34:10;102452.75;;;17.10;51.45
72055;BME280;59936;51.490;5.436;2023-05-02T10:36:36;102460.00;;;16.85;52.26
72055;BME280;59936;51.490;5.436;2023-05-02T10:39:02;102462.66;;;16.45;53.63
72055;BME280;59936;51.490;5.436;2023-05-02T10:41:30;102462.66;;;16.45;53.63
72055;BME280;59936;51.490;5.436;2023-05-02T10:43:58;102463.69;;;16.52;53.04
72055;BME280;59936;51.490;5.436;2023-05-02T10:46:39;102458.47;;;15.48;53.22
72055;BME280;59936;51.490;5.436;2023-05-02T10:49:07;102462.50;;;15.18;49.31
72055;BME280;59936;51.490;5.436;2023-05-02T10:51:34;102463.47;;;15.35;54.45
72055;BME280;59936;51.490;5.436;2023-05-02T10:59:27;102460.78;;;14.74;48.29
72055;BME280;59936;51.490;5.436;2023-05-02T11:01:53;102476.22;;;14.36;54.90
72055;BME280;59936;51.490;5.436;2023-05-02T11:04:18;102476.38;;;14.34;54.43
72055;BME280;59936;51.490;5.436;2023-05-02T11:11:53;102469.66;;;17.04;49.09
72055;BME280;59936;51.490;5.436;2023-05-02T11:19:23;102459.03;;;20.38;44.60
72055;BME280;59936;51.490;5.436;2023-05-02T11:21:50;102459.38;;;20.14;42.81
72055;BME280;59936;51.490;5.436;2023-05-02T11:29:59;102484.16;;;15.44;51.68
72055;BME280;59936;51.490;5.436;2023-05-02T11:37:42;102468.31;;;17.24;45.10
72055;BME280;59936;51.490;5.436;2023-05-02T11:40:12;102468.31;;;17.24;45.10
72055;BME280;59936;51.490;5.436;2023-05-02T11:42:40;102467.13;;;17.35;45.99
72055;BME280;59936;51.490;5.436;2023-05-02T11:45:06;102468.94;;;16.03;47.22
72055;BME280;59936;51.490;5.436;2023-05-02T11:47:32;102470.28;;;15.47;49.10
72055;BME280;59936;51.490;5.436;2023-05-02T11:49:58;102482.38;;;14.91;49.19
72055;BME280;59936;51.490;5.436;2023-05-02T11:52:24;102459.88;;;16.20;45.75
72055;BME280;59936;51.490;5.436;2023-05-02T11:54:54;102478.66;;;14.92;45.44
72055;BME280;59936;51.490;5.436;2023-05-02T11:57:20;102478.66;;;14.92;45.44
72055;BME280;59936;51.490;5.436;2023-05-02T11:59:52;102472.59;;;14.73;46.83
72055;BME280;59936;51.490;5.436;2023-05-02T12:02:19;102478.50;;;15.89;44.63
72055;BME280;59936;51.490;5.436;2023-05-02T12:04:45;102478.19;;;17.81;42.23
72055;BME280;59936;51.490;5.436;2023-05-02T12:07:11;102481.00;;;17.24;42.87
72055;BME280;59936;51.490;5.436;2023-05-02T12:09:50;102483.53;;;16.18;44.23
72055;BME280;59936;51.490;5.436;2023-05-02T12:12:20;102486.72;;;15.54;40.44
72055;BME280;59936;51.490;5.436;2023-05-02T12:14:46;102494.81;;;15.80;44.94
72055;BME280;59936;51.490;5.436;2023-05-02T12:17:12;102493.66;;;15.82;46.57
72055;BME280;59936;51.490;5.436;2023-05-02T12:19:38;102493.66;;;15.82;46.57
72055;BME280;59936;51.490;5.436;2023-05-02T12:22:04;102493.47;;;15.24;45.42
72055;BME280;59936;51.490;5.436;2023-05-02T12:24:30;102492.41;;;15.25;46.35
72055;BME280;59936;51.490;5.436;2023-05-02T12:27:09;102502.16;;;15.61;45.85
72055;BME280;59936;51.490;5.436;2023-05-02T12:29:43;102496.41;;;15.90;45.81
72055;BME280;59936;51.490;5.436;2023-05-02T12:32:10;102501.94;;;15.55;45.80
72055;BME280;59936;51.490;5.436;2023-05-02T12:34:37;102518.06;;;15.03;46.94
72055;BME280;59936;51.490;5.436;2023-05-02T12:37:03;102518.06;;;15.03;46.94
72055;BME280;59936;51.490;5.436;2023-05-02T12:39:40;102514.00;;;15.68;46.33
72055;BME280;59936;51.490;5.436;2023-05-02T12:44:37;102518.75;;;15.66;45.36
72055;BME280;59936;51.490;5.436;2023-05-02T12:47:04;102532.31;;;15.31;45.88
72055;BME280;59936;51.490;5.436;2023-05-02T12:49:30;102541.28;;;14.78;45.96
72055;BME280;59936;51.490;5.436;2023-05-02T12:51:56;102538.78;;;14.67;46.28
72055;BME280;59936;51.490;5.436;2023-05-02T12:54:22;102538.78;;;14.67;46.28
72055;BME280;59936;51.490;5.436;2023-05-02T12:56:47;102534.88;;;15.32;46.09
72055;BME280;59936;51.490;5.436;2023-05-02T12:59:27;102534.75;;;16.20;41.80
72055;BME280;59936;51.490;5.436;2023-05-02T13:01:53;102534.75;;;16.20;41.80
72055;BME280;59936;51.490;5.436;2023-05-02T13:04:19;102536.63;;;16.77;43.70
72055;BME280;59936;51.490;5.436;2023-05-02T13:06:45;102538.16;;;16.80;43.15
72055;BME280;59936;51.490;5.436;2023-05-02T13:09:11;102538.16;;;16.80;43.15
72055;BME280;59936;51.490;5.436;2023-05-02T13:11:37;102526.13;;;16.66;43.19
72055;BME280;59936;51.490;5.436;2023-05-02T13:14:02;102539.56;;;15.74;44.88
72055;BME280;59936;51.490;5.436;2023-05-02T13:16:28;102536.34;;;14.74;45.28
72055;BME280;59936;51.490;5.436;2023-05-02T13:18:54;102536.34;;;14.74;45.28
72055;BME280;59936;51.490;5.436;2023-05-02T13:21:20;102537.97;;;14.84;45.36
72055;BME280;59936;51.490;5.436;2023-05-02T13:23:46;102535.28;;;15.89;44.20
72055;BME280;59936;51.490;5.436;2023-05-02T13:26:12;102535.50;;;15.52;44.31
72055;BME280;59936;51.490;5.436;2023-05-02T13:28:38;102535.50;;;15.52;44.31
72055;BME280;59936;51.490;5.436;2023-05-02T13:31:04;102535.94;;;14.41;45.77
72055;BME280;59936;51.490;5.436;2023-05-02T13:33:30;102535.94;;;14.41;45.77
72055;BME280;59936;51.490;5.436;2023-05-02T13:35:55;102532.09;;;14.89;45.86